Maldives Meteorological Service

METAR

Station
VRMM
METAR VRMM 302100Z 24011KT 9999 FEW018 BKN120 28/25 Q1009 TEMPO FEW019CB=
VRMH
METAR VRMH 302100Z 25006KT 9999 FEW017 FEW018CB SCT110 BKN260 27/25 Q1008 CB NE,S=
VRMK
METAR VRMK 302100Z VRB02KT 9999 TS FEW017 FEW018CB BKN120 26/25 Q1010 RETS CB E,SW=
VRMT
METAR VRMT 302100Z 16003KT 9999 FEW018TCU SCT270 28/25 Q1010=
VRMG
METAR VRMG 302100Z 17003KT 9999 FEW018TCU BKN260 27/25 Q1010.9 TEMPO FEW018CB=
Last Updated : 2020-05-31 01:59:30

SPECI

Station
VRMM
VRMH
VRMK
VRMT
VRMG
Last Updated : 2020-05-31 01:59:30